Time;durP1;ratioP1;P1;durP2;ratioP2;P2;SDS_P1;SDS_P2;PMS_P1;PMS_P2;Temp;Humidity;BMP_temperature;BMP_pressure;BME280_temperature;BME280_humidity;BME280_pressure;Samples;Min_cycle;Max_cycle;Signal;HPM_P1;HPM_P2
2024/01/22 00:01:04;;;;;;;0.00;0.00;;;10.70;78.40;;;;;;5026077;28;20691;-24
2024/01/22 00:03:39;;;;;;;0.00;0.00;;;10.70;78.40;;;;;;5025041;28;20296;-24
2024/01/22 00:06:08;;;;;;;0.00;0.00;;;10.70;78.40;;;;;;5023645;28;20200;-24
2024/01/22 00:08:36;;;;;;;0.00;0.00;;;10.70;78.40;;;;;;5022719;28;20236;-24
2024/01/22 00:11:07;;;;;;;0.00;0.00;;;10.70;78.40;;;;;;5025805;28;20304;-23
2024/01/22 00:13:37;;;;;;;0.00;0.00;;;10.80;78.40;;;;;;5025551;28;20197;-23
2024/01/22 00:16:04;;;;;;;0.00;0.00;;;10.80;78.50;;;;;;5025476;28;20209;-23
2024/01/22 00:18:36;;;;;;;0.00;0.00;;;10.80;78.70;;;;;;5025309;28;20233;-24
2024/01/22 00:21:04;;;;;;;0.00;0.00;;;10.80;78.60;;;;;;5028394;28;20216;-24
2024/01/22 00:23:34;;;;;;;0.00;0.00;;;10.80;78.40;;;;;;5044397;28;20559;-24
2024/01/22 00:26:06;;;;;;;0.00;0.00;;;10.80;78.40;;;;;;5043684;28;20327;-24
2024/01/22 00:28:35;;;;;;;0.00;0.00;;;10.90;78.50;;;;;;5044902;28;20227;-24
2024/01/22 00:31:05;;;;;;;0.00;0.00;;;10.90;78.50;;;;;;5045105;28;20208;-24
2024/01/22 00:33:33;;;;;;;0.00;0.00;;;10.90;78.60;;;;;;5043121;28;20216;-24
2024/01/22 00:36:03;;;;;;;0.00;0.00;;;10.90;78.50;;;;;;5029533;28;21104;-24
2024/01/22 00:38:31;;;;;;;0.00;0.00;;;10.90;78.60;;;;;;5022725;28;20642;-24
2024/01/22 00:40:58;;;;;;;0.00;0.00;;;11.00;78.50;;;;;;5024512;28;20204;-24
2024/01/22 00:43:28;;;;;;;0.00;0.00;;;11.00;78.50;;;;;;5023109;28;20209;-24
2024/01/22 00:45:55;;;;;;;0.00;0.00;;;11.00;78.50;;;;;;5007126;28;20793;-24
2024/01/22 00:48:23;;;;;;;0.00;0.00;;;11.00;78.50;;;;;;5009073;28;20231;-24
2024/01/22 00:50:55;;;;;;;0.00;0.00;;;11.00;78.60;;;;;;5028937;28;20197;-24
2024/01/22 00:53:25;;;;;;;0.00;0.00;;;11.00;78.50;;;;;;5011037;28;20213;-24
2024/01/22 00:55:52;;;;;;;0.00;0.00;;;11.10;78.50;;;;;;5039621;28;20422;-24
2024/01/22 00:58:22;;;;;;;0.00;0.00;;;11.10;78.70;;;;;;5047934;28;20204;-24
2024/01/22 01:00:49;;;;;;;0.00;0.00;;;11.10;78.50;;;;;;5048594;28;20200;-24
2024/01/22 01:03:18;;;;;;;0.00;0.00;;;11.10;78.60;;;;;;5046577;28;20215;-24
2024/01/22 01:05:46;;;;;;;0.00;0.00;;;11.10;79.30;;;;;;5048350;28;20199;-24
2024/01/22 01:08:13;;;;;;;0.00;0.00;;;11.10;79.50;;;;;;5048228;28;20508;-24
2024/01/22 01:10:42;;;;;;;0.00;0.00;;;11.10;78.70;;;;;;5027172;28;20479;-24
2024/01/22 01:13:12;;;;;;;0.00;0.00;;;11.20;78.60;;;;;;5010358;28;20224;-24
2024/01/22 01:15:41;;;;;;;0.00;0.00;;;11.20;78.60;;;;;;5010906;28;20197;-24
2024/01/22 01:18:09;;;;;;;0.00;0.00;;;11.20;78.60;;;;;;5028193;28;20213;-24
2024/01/22 01:20:37;;;;;;;0.00;0.00;;;11.20;78.60;;;;;;5027929;28;20702;-24
2024/01/22 01:23:04;;;;;;;0.00;0.00;;;11.20;78.70;;;;;;5027914;28;20219;-24
2024/01/22 01:25:33;;;;;;;0.00;0.00;;;11.30;78.70;;;;;;5027025;28;20201;-24
2024/01/22 01:28:06;;;;;;;0.00;0.00;;;11.30;78.70;;;;;;5028092;28;20235;-24
2024/01/22 01:30:38;;;;;;;0.00;0.00;;;11.30;78.70;;;;;;5028239;28;20214;-24
2024/01/22 01:33:07;;;;;;;0.00;0.00;;;11.30;78.80;;;;;;5027709;28;20304;-24
2024/01/22 01:35:43;;;;;;;0.00;0.00;;;11.30;78.70;;;;;;5026176;28;20236;-24
2024/01/22 01:38:11;;;;;;;0.00;0.00;;;11.30;78.70;;;;;;5027373;28;20213;-24
2024/01/22 01:40:41;;;;;;;0.00;0.00;;;11.40;78.80;;;;;;5027517;28;20201;-24
2024/01/22 01:43:08;;;;;;;0.00;0.00;;;11.40;78.80;;;;;;5027840;28;20687;-24
2024/01/22 01:45:36;;;;;;;0.00;0.00;;;11.40;78.80;;;;;;5026447;28;20201;-24
2024/01/22 01:48:03;;;;;;;0.00;0.00;;;11.40;78.80;;;;;;5036689;28;20224;-24
2024/01/22 01:50:33;;;;;;;0.00;0.00;;;11.40;78.80;;;;;;5047634;28;20224;-24
2024/01/22 01:53:04;;;;;;;0.00;0.00;;;11.50;78.80;;;;;;5037732;28;20213;-24
2024/01/22 01:55:36;;;;;;;0.00;0.00;;;11.50;78.80;;;;;;5026489;28;20204;-24
2024/01/22 01:58:05;;;;;;;0.00;0.00;;;11.50;78.80;;;;;;5009135;28;20221;-28
2024/01/22 02:00:35;;;;;;;0.00;0.00;;;11.50;78.80;;;;;;5031133;28;20201;-24
2024/01/22 02:03:02;;;;;;;0.00;0.00;;;11.50;78.80;;;;;;5030543;28;20212;-24
2024/01/22 02:05:34;;;;;;;0.00;0.00;;;11.60;78.90;;;;;;5042183;28;20224;-24
2024/01/22 02:08:07;;;;;;;0.00;0.00;;;11.60;78.90;;;;;;5032541;28;20260;-24
2024/01/22 02:10:34;;;;;;;0.00;0.00;;;11.60;78.90;;;;;;5048604;28;20204;-24
2024/01/22 02:13:09;;;;;;;0.00;0.00;;;11.70;79.00;;;;;;5047318;28;20200;-24
2024/01/22 02:15:36;;;;;;;0.00;0.00;;;11.70;79.00;;;;;;5038724;28;20224;-23
2024/01/22 02:18:03;;;;;;;0.00;0.00;;;11.70;79.00;;;;;;5042442;28;20204;-24
2024/01/22 02:20:35;;;;;;;0.00;0.00;;;11.70;79.10;;;;;;5045283;28;20214;-23
2024/01/22 02:23:07;;;;;;;0.00;0.00;;;11.70;79.00;;;;;;5039423;28;20229;-23
2024/01/22 02:25:38;;;;;;;0.00;0.00;;;11.80;79.20;;;;;;5047067;28;20231;-23
2024/01/22 02:28:06;;;;;;;0.00;0.00;;;11.80;79.30;;;;;;5044965;28;20232;-23
2024/01/22 02:30:33;;;;;;;0.00;0.00;;;11.80;79.20;;;;;;5046997;28;20215;-23
2024/01/22 02:33:00;;;;;;;0.00;0.00;;;11.90;79.40;;;;;;5044788;28;20686;-24
2024/01/22 02:35:30;;;;;;;0.00;0.00;;;11.90;79.30;;;;;;5044381;28;20267;-24
2024/01/22 02:37:57;;;;;;;0.00;0.00;;;11.90;79.30;;;;;;5045099;28;20211;-24
2024/01/22 02:40:27;;;;;;;0.00;0.00;;;12.00;79.40;;;;;;5045454;28;20208;-23
2024/01/22 02:42:54;;;;;;;0.00;0.00;;;12.00;79.30;;;;;;5029066;28;20200;-23
2024/01/22 02:45:24;;;;;;;0.00;0.00;;;12.00;79.30;;;;;;5025829;28;20204;-23
2024/01/22 02:47:51;;;;;;;0.00;0.00;;;12.10;79.40;;;;;;5026847;28;20723;-24
2024/01/22 02:50:21;;;;;;;0.00;0.00;;;12.10;79.40;;;;;;5034256;28;20215;-23
2024/01/22 02:52:50;;;;;;;0.00;0.00;;;12.10;79.30;;;;;;5026626;28;20212;-24
2024/01/22 02:55:20;;;;;;;0.00;0.00;;;12.20;79.40;;;;;;5026231;28;20205;-24
2024/01/22 02:57:48;;;;;;;0.00;0.00;;;12.20;80.20;;;;;;5024906;28;20212;-24
2024/01/22 03:00:15;;;;;;;0.00;0.00;;;12.20;79.40;;;;;;5025243;28;20212;-28
2024/01/22 03:02:43;;;;;;;0.00;0.00;;;12.20;79.50;;;;;;5025267;28;20200;-26
2024/01/22 03:05:12;;;;;;;0.00;0.00;;;12.30;79.40;;;;;;5026450;28;20565;-26
2024/01/22 03:07:40;;;;;;;0.00;0.00;;;12.30;79.40;;;;;;5025318;28;20596;-26
2024/01/22 03:10:11;;;;;;;0.00;0.00;;;12.30;79.60;;;;;;5025957;28;20205;-26
2024/01/22 03:12:39;;;;;;;0.00;0.00;;;12.40;79.50;;;;;;5027726;28;20197;-26
2024/01/22 03:15:08;;;;;;;0.00;0.00;;;12.40;79.60;;;;;;5024851;28;20275;-26
2024/01/22 03:17:38;;;;;;;0.00;0.00;;;12.40;79.40;;;;;;5026461;28;20274;-26
2024/01/22 03:20:10;;;;;;;0.00;0.00;;;12.40;79.50;;;;;;5024739;28;20212;-26
2024/01/22 03:22:39;;;;;;;0.00;0.00;;;12.40;79.40;;;;;;5024570;28;20207;-26
2024/01/22 03:25:06;;;;;;;0.00;0.00;;;12.40;79.40;;;;;;5033794;28;20220;-26
2024/01/22 03:27:34;;;;;;;0.00;0.00;;;12.40;79.50;;;;;;5045743;28;20200;-26
2024/01/22 03:30:02;;;;;;;0.00;0.00;;;12.50;79.50;;;;;;5046293;28;20204;-26
2024/01/22 03:32:29;;;;;;;0.00;0.00;;;12.50;79.60;;;;;;5046336;28;20209;-26
2024/01/22 03:34:56;;;;;;;0.00;0.00;;;12.50;79.50;;;;;;5045919;28;20235;-28
2024/01/22 03:37:24;;;;;;;0.00;0.00;;;12.50;79.50;;;;;;5044232;28;20203;-26
2024/01/22 03:39:53;;;;;;;0.00;0.00;;;12.50;79.50;;;;;;5040028;28;20197;-26
2024/01/22 03:42:20;;;;;;;0.00;0.00;;;12.50;79.60;;;;;;5024724;28;20225;-26
2024/01/22 03:44:47;;;;;;;0.00;0.00;;;12.50;79.60;;;;;;5025708;28;20201;-26
2024/01/22 03:47:18;;;;;;;0.00;0.00;;;12.50;79.50;;;;;;5037638;28;20204;-26
2024/01/22 03:49:47;;;;;;;0.00;0.00;;;12.50;79.50;;;;;;5044060;28;20220;-26
2024/01/22 03:52:20;;;;;;;0.00;0.00;;;12.50;79.60;;;;;;5044238;28;20191;-26
2024/01/22 03:54:49;;;;;;;0.00;0.00;;;12.50;79.50;;;;;;5043727;28;20283;-26
2024/01/22 03:57:21;;;;;;;0.00;0.00;;;12.50;79.50;;;;;;5045305;28;20208;-26
2024/01/22 03:59:50;;;;;;;0.00;0.00;;;12.50;79.60;;;;;;5029912;28;20311;-26
2024/01/22 04:02:18;;;;;;;0.00;0.00;;;12.50;79.70;;;;;;5025381;28;20207;-26
2024/01/22 04:04:47;;;;;;;0.00;0.00;;;12.50;79.60;;;;;;5023751;28;20212;-26
2024/01/22 04:07:17;;;;;;;0.00;0.00;;;12.60;79.80;;;;;;5025988;28;20747;-26
2024/01/22 04:09:45;;;;;;;0.00;0.00;;;12.60;79.80;;;;;;5025109;28;20225;-26
2024/01/22 04:12:12;;;;;;;0.00;0.00;;;12.60;79.80;;;;;;5025340;28;20205;-26
2024/01/22 04:14:41;;;;;;;0.00;0.00;;;12.60;79.90;;;;;;5023860;28;20192;-26
2024/01/22 04:17:09;;;;;;;0.00;0.00;;;12.70;79.80;;;;;;5024328;28;20242;-26
2024/01/22 04:19:41;;;;;;;0.00;0.00;;;12.70;80.60;;;;;;5025490;28;20301;-26
2024/01/22 04:22:11;;;;;;;0.00;0.00;;;12.70;79.80;;;;;;5023533;28;20667;-26
2024/01/22 04:24:42;;;;;;;0.00;0.00;;;12.70;79.90;;;;;;5026725;28;20877;-26
2024/01/22 04:27:10;;;;;;;0.00;0.00;;;12.70;79.90;;;;;;5027064;28;20216;-26
2024/01/22 04:29:37;;;;;;;0.00;0.00;;;12.80;80.10;;;;;;5023712;28;20324;-26
2024/01/22 04:32:05;;;;;;;0.00;0.00;;;12.80;80.00;;;;;;5023873;28;20220;-26
2024/01/22 04:34:32;;;;;;;0.00;0.00;;;12.80;79.90;;;;;;5025872;28;20286;-26
2024/01/22 04:37:02;;;;;;;0.00;0.00;;;12.80;79.90;;;;;;5023411;28;20203;-26
2024/01/22 04:39:29;;;;;;;0.00;0.00;;;12.90;79.90;;;;;;5024357;28;20208;-25
2024/01/22 04:41:57;;;;;;;0.00;0.00;;;12.90;79.90;;;;;;5023467;28;20201;-26
2024/01/22 04:44:27;;;;;;;0.00;0.00;;;12.90;79.80;;;;;;5024487;28;20551;-26
2024/01/22 04:46:55;;;;;;;0.00;0.00;;;12.90;79.80;;;;;;5025014;28;20209;-26
2024/01/22 04:49:25;;;;;;;0.00;0.00;;;13.00;79.90;;;;;;5026956;28;20262;-26
2024/01/22 04:51:57;;;;;;;0.00;0.00;;;12.90;79.80;;;;;;5045211;28;20594;-26
2024/01/22 04:54:24;;;;;;;0.00;0.00;;;13.00;79.80;;;;;;5042894;28;20181;-26
2024/01/22 04:56:59;;;;;;;0.00;0.00;;;13.00;79.90;;;;;;5044537;28;20208;-25
2024/01/22 04:59:26;;;;;;;0.00;0.00;;;13.00;79.80;;;;;;5044380;28;20189;-26
2024/01/22 05:01:53;;;;;;;0.00;0.00;;;13.10;80.00;;;;;;5010650;28;20212;-25
2024/01/22 05:04:25;;;;;;;0.00;0.00;;;13.10;80.00;;;;;;5043084;28;20207;-25
2024/01/22 05:06:52;;;;;;;0.00;0.00;;;13.10;79.90;;;;;;5045019;28;20207;-25
2024/01/22 05:09:22;;;;;;;0.00;0.00;;;13.10;79.80;;;;;;5043963;28;20231;-25
2024/01/22 05:11:52;;;;;;;0.00;0.00;;;13.10;79.80;;;;;;5044828;28;20335;-26
2024/01/22 05:14:19;;;;;;;0.00;0.00;;;13.10;79.80;;;;;;5044943;28;20196;-26
2024/01/22 05:16:48;;;;;;;0.00;0.00;;;13.20;79.80;;;;;;5046499;28;20219;-25
2024/01/22 05:19:18;;;;;;;0.00;0.00;;;13.20;79.90;;;;;;5044522;28;20236;-25
2024/01/22 05:21:48;;;;;;;0.00;0.00;;;13.20;79.90;;;;;;5035770;28;20209;-25
2024/01/22 05:24:20;;;;;;;0.00;0.00;;;13.20;79.90;;;;;;5035670;28;20212;-25
2024/01/22 05:26:49;;;;;;;0.00;0.00;;;13.20;79.80;;;;;;5045204;28;20248;-25
2024/01/22 05:29:19;;;;;;;0.00;0.00;;;13.20;79.90;;;;;;5044884;28;20216;-25
2024/01/22 05:31:46;;;;;;;0.00;0.00;;;13.20;79.90;;;;;;5046619;28;20853;-25
2024/01/22 05:34:13;;;;;;;0.00;0.00;;;13.20;79.90;;;;;;5046684;28;20258;-26
2024/01/22 05:36:46;;;;;;;0.00;0.00;;;13.30;79.90;;;;;;5040237;28;20274;-25
2024/01/22 05:39:18;;;;;;;0.00;0.00;;;13.30;80.00;;;;;;5026620;28;20205;-25
2024/01/22 05:41:45;;;;;;;0.00;0.00;;;13.30;79.90;;;;;;5027406;28;20200;-26
2024/01/22 05:44:12;;;;;;;0.00;0.00;;;13.30;79.90;;;;;;5026532;28;20205;-25
2024/01/22 05:46:44;;;;;;;0.00;0.00;;;13.40;79.90;;;;;;5028197;28;20212;-25
2024/01/22 05:49:14;;;;;;;0.00;0.00;;;13.40;80.00;;;;;;5026404;28;20213;-25
2024/01/22 05:51:41;;;;;;;0.00;0.00;;;13.40;80.00;;;;;;5027774;28;20200;-25
2024/01/22 05:54:11;;;;;;;0.00;0.00;;;13.40;80.00;;;;;;5027350;28;20220;-25
2024/01/22 05:56:39;;;;;;;0.00;0.00;;;13.40;79.90;;;;;;5026263;28;20640;-25
2024/01/22 05:59:09;;;;;;;0.00;0.00;;;13.40;79.90;;;;;;5028086;28;20232;-26
2024/01/22 06:01:36;;;;;;;0.00;0.00;;;13.40;79.90;;;;;;5027886;28;20197;-25
2024/01/22 06:04:04;;;;;;;0.00;0.00;;;13.40;79.90;;;;;;5026112;28;20215;-25
2024/01/22 06:06:36;;;;;;;0.00;0.00;;;13.50;79.80;;;;;;5029654;28;20277;-25
2024/01/22 06:09:06;;;;;;;0.00;0.00;;;13.50;79.80;;;;;;5029278;28;20216;-26
2024/01/22 06:11:35;;;;;;;0.00;0.00;;;13.50;79.90;;;;;;5028515;28;20615;-25
2024/01/22 06:14:07;;;;;;;0.00;0.00;;;13.50;79.70;;;;;;5028346;28;20201;-25
2024/01/22 06:16:36;;;;;;;0.00;0.00;;;13.50;79.80;;;;;;5027049;28;20572;-26
2024/01/22 06:19:05;;;;;;;0.00;0.00;;;13.50;79.80;;;;;;5026851;28;20302;-25
2024/01/22 06:21:33;;;;;;;0.00;0.00;;;13.50;79.80;;;;;;5025830;28;20255;-26
2024/01/22 06:24:00;;;;;;;0.00;0.00;;;13.50;79.90;;;;;;5026814;28;20267;-25
2024/01/22 06:26:29;;;;;;;0.00;0.00;;;13.60;79.70;;;;;;5025901;28;20683;-25
2024/01/22 06:29:01;;;;;;;0.00;0.00;;;13.60;79.70;;;;;;5026943;28;20229;-25
2024/01/22 06:31:31;;;;;;;0.00;0.00;;;13.60;79.70;;;;;;5027011;28;20224;-25
2024/01/22 06:33:58;;;;;;;0.00;0.00;;;13.70;79.60;;;;;;5026372;28;20665;-25
2024/01/22 06:36:29;;;;;;;0.00;0.00;;;13.70;79.80;;;;;;5027190;28;20460;-26
2024/01/22 06:38:59;;;;;;;0.00;0.00;;;13.70;79.90;;;;;;5025388;28;20240;-25
2024/01/22 06:41:27;;;;;;;0.00;0.00;;;13.70;79.80;;;;;;4993027;28;20208;-25
2024/01/22 06:43:54;;;;;;;0.00;0.00;;;13.70;79.60;;;;;;5027066;28;20201;-25
2024/01/22 06:46:22;;;;;;;0.00;0.00;;;13.80;79.70;;;;;;5026003;28;20211;-25
2024/01/22 06:48:51;;;;;;;0.00;0.00;;;13.80;79.80;;;;;;5026560;28;20290;-25
2024/01/22 06:51:23;;;;;;;0.00;0.00;;;13.80;79.70;;;;;;5009009;28;20213;-25
2024/01/22 06:54:01;;;;;;;0.00;0.00;;;13.70;79.70;;;;;;5026444;28;20221;-25
2024/01/22 06:56:28;;;;;;;0.00;0.00;;;13.80;79.70;;;;;;5025306;28;20307;-24
2024/01/22 06:58:56;;;;;;;0.00;0.00;;;13.80;79.60;;;;;;5025463;28;20506;-25
2024/01/22 07:01:27;;;;;;;0.00;0.00;;;13.80;79.60;;;;;;5026728;28;20279;-26
2024/01/22 07:03:54;;;;;;;0.00;0.00;;;13.80;79.60;;;;;;5025305;28;20725;-25
2024/01/22 07:06:22;;;;;;;0.00;0.00;;;13.80;79.60;;;;;;5026761;28;20609;-25
2024/01/22 07:08:54;;;;;;;0.00;0.00;;;13.80;79.60;;;;;;5025938;28;20226;-25
2024/01/22 07:11:23;;;;;;;0.00;0.00;;;13.80;80.00;;;;;;5024883;28;20201;-26
2024/01/22 07:13:53;;;;;;;0.00;0.00;;;13.80;79.70;;;;;;5026996;28;20212;-25
2024/01/22 07:16:23;;;;;;;0.00;0.00;;;13.80;79.70;;;;;;5025221;28;20694;-25
2024/01/22 07:18:53;;;;;;;0.00;0.00;;;13.90;79.70;;;;;;5025104;28;20220;-25
2024/01/22 07:21:20;;;;;;;0.00;0.00;;;13.90;79.70;;;;;;5025863;28;20205;-25
2024/01/22 07:23:50;;;;;;;0.00;0.00;;;13.80;79.70;;;;;;5033666;28;20747;-25
2024/01/22 07:26:17;;;;;;;0.00;0.00;;;13.80;79.60;;;;;;5026280;28;20205;-25
2024/01/22 07:28:44;;;;;;;0.00;0.00;;;13.80;79.60;;;;;;5025549;28;20594;-25
2024/01/22 07:31:14;;;;;;;0.00;0.00;;;13.80;79.60;;;;;;5024612;28;20212;-25
2024/01/22 07:33:41;;;;;;;0.00;0.00;;;13.80;79.60;;;;;;5024022;28;20233;-25
2024/01/22 07:36:08;;;;;;;0.00;0.00;;;13.80;79.60;;;;;;5025802;28;20651;-25
2024/01/22 07:38:37;;;;;;;0.00;0.00;;;13.80;79.50;;;;;;5025435;28;20205;-25
2024/01/22 07:41:06;;;;;;;0.00;0.00;;;13.80;79.50;;;;;;5025662;28;20716;-25
2024/01/22 07:43:36;;;;;;;0.00;0.00;;;13.70;79.40;;;;;;5025534;28;20193;-26
2024/01/22 07:46:04;;;;;;;0.00;0.00;;;13.70;79.40;;;;;;5025757;28;20221;-25
2024/01/22 07:48:31;;;;;;;0.00;0.00;;;13.70;79.40;;;;;;5023980;28;20212;-25
2024/01/22 07:51:01;;;;;;;0.00;0.00;;;13.70;79.50;;;;;;5025819;28;20203;-25
2024/01/22 07:53:30;;;;;;;0.00;0.00;;;13.70;79.50;;;;;;5024701;28;20667;-25
2024/01/22 07:55:59;;;;;;;0.00;0.00;;;13.60;79.60;;;;;;5025777;28;20521;-26
2024/01/22 07:58:29;;;;;;;0.00;0.00;;;13.60;79.50;;;;;;5024832;28;20215;-25
2024/01/22 08:01:00;;;;;;;0.00;0.00;;;13.60;79.60;;;;;;5025780;28;20609;-25
2024/01/22 08:03:27;;;;;;;0.00;0.00;;;13.60;79.70;;;;;;5025198;28;20216;-25
2024/01/22 08:05:55;;;;;;;0.00;0.00;;;13.60;79.70;;;;;;5025288;28;20295;-25
2024/01/22 08:08:22;;;;;;;0.00;0.00;;;13.60;79.70;;;;;;5023305;28;20220;-25
2024/01/22 08:10:55;;;;;;;0.00;0.00;;;13.60;79.70;;;;;;5025344;28;20225;-25
2024/01/22 08:13:24;;;;;;;0.00;0.00;;;13.60;79.70;;;;;;5023291;28;20224;-25
2024/01/22 08:15:54;;;;;;;0.00;0.00;;;13.50;79.60;;;;;;5025040;28;20197;-25
2024/01/22 08:18:23;;;;;;;0.00;0.00;;;13.50;79.80;;;;;;5024884;28;20541;-25
2024/01/22 08:20:55;;;;;;;0.00;0.00;;;13.50;79.80;;;;;;5024768;28;20311;-25
2024/01/22 08:23:23;;;;;;;0.00;0.00;;;13.50;79.70;;;;;;5024449;28;20552;-25
2024/01/22 08:25:52;;;;;;;0.00;0.00;;;13.50;79.80;;;;;;5026934;28;20216;-25
2024/01/22 08:28:19;;;;;;;0.00;0.00;;;13.50;79.70;;;;;;5007200;28;20213;-25
2024/01/22 08:30:49;;;;;;;0.00;0.00;;;13.40;79.60;;;;;;5025506;28;20248;-25
2024/01/22 08:33:18;;;;;;;0.00;0.00;;;13.50;79.80;;;;;;5024559;28;20201;-25
2024/01/22 08:35:46;;;;;;;0.00;0.00;;;13.50;79.80;;;;;;5003942;28;20720;-25
2024/01/22 08:38:16;;;;;;;0.00;0.00;;;13.40;79.80;;;;;;5005241;28;20213;-25
2024/01/22 08:40:44;;;;;;;0.00;0.00;;;13.40;79.80;;;;;;5006097;28;20216;-26
2024/01/22 08:43:11;;;;;;;0.00;0.00;;;13.40;79.90;;;;;;5007392;28;20201;-25
2024/01/22 08:45:41;;;;;;;0.00;0.00;;;13.50;79.90;;;;;;5007225;28;20222;-25
2024/01/22 08:48:12;;;;;;;0.00;0.00;;;13.40;79.90;;;;;;5007331;28;20225;-25
2024/01/22 08:50:42;;;;;;;0.00;0.00;;;13.50;79.90;;;;;;5007483;28;20233;-25
2024/01/22 08:53:10;;;;;;;0.00;0.00;;;13.50;80.00;;;;;;5004558;28;20206;-26
2024/01/22 08:55:39;;;;;;;0.00;0.00;;;13.50;80.00;;;;;;5003577;28;20213;-25
2024/01/22 08:58:09;;;;;;;0.00;0.00;;;13.50;80.00;;;;;;5004716;28;20205;-29
2024/01/22 09:00:36;;;;;;;0.00;0.00;;;13.50;80.00;;;;;;5003482;28;20870;-40
2024/01/22 09:03:15;;;;;;;0.00;0.00;;;13.60;80.10;;;;;;5003276;28;20205;-41
2024/01/22 09:05:44;;;;;;;0.00;0.00;;;13.60;80.00;;;;;;5005843;28;20920;-40
2024/01/22 09:08:14;;;;;;;0.00;0.00;;;13.60;80.00;;;;;;5014204;28;20207;-39
2024/01/22 09:10:41;;;;;;;0.00;0.00;;;13.60;80.00;;;;;;5026998;28;20239;-40
2024/01/22 09:13:11;;;;;;;0.00;0.00;;;13.60;80.00;;;;;;5026763;28;20192;-42
2024/01/22 09:15:38;;;;;;;0.00;0.00;;;13.60;79.90;;;;;;5010444;28;20235;-40
2024/01/22 09:18:10;;;;;;;0.00;0.00;;;13.60;80.00;;;;;;5027242;28;20193;-40
2024/01/22 09:20:41;;;;;;;0.00;0.00;;;13.60;80.00;;;;;;5027091;28;20235;-40
2024/01/22 09:23:10;;;;;;;0.00;0.00;;;13.70;80.00;;;;;;5010929;28;20240;-40
2024/01/22 09:25:40;;;;;;;0.00;0.00;;;13.70;80.00;;;;;;5007022;28;20227;-40
2024/01/22 09:28:14;;;;;;;0.00;0.00;;;13.70;80.00;;;;;;5008533;28;20203;-40
2024/01/22 09:30:41;;;;;;;0.00;0.00;;;13.70;79.90;;;;;;5028620;28;20221;-40
2024/01/22 09:33:09;;;;;;;0.00;0.00;;;13.70;79.90;;;;;;5027829;28;20687;-40
2024/01/22 09:35:40;;;;;;;0.00;0.00;;;13.70;79.90;;;;;;5045770;28;20235;-39
2024/01/22 09:38:08;;;;;;;0.00;0.00;;;13.70;80.00;;;;;;5045841;28;20700;-40
2024/01/22 09:40:38;;;;;;;0.00;0.00;;;13.70;79.90;;;;;;5026599;28;20618;-40
2024/01/22 09:43:08;;;;;;;0.00;0.00;;;13.70;79.90;;;;;;5026537;28;20212;-39
2024/01/22 09:45:39;;;;;;;0.00;0.00;;;13.70;80.00;;;;;;5028063;28;20219;-40
2024/01/22 09:48:08;;;;;;;0.00;0.00;;;13.70;80.70;;;;;;5027943;28;20227;-40
2024/01/22 09:50:42;;;;;;;0.00;0.00;;;13.80;80.00;;;;;;5026509;28;20715;-41
2024/01/22 09:53:11;;;;;;;0.00;0.00;;;13.70;80.00;;;;;;5026148;28;20192;-41
2024/01/22 09:55:40;;;;;;;0.00;0.00;;;13.80;80.00;;;;;;5028081;28;20292;-41
2024/01/22 09:58:09;;;;;;;0.00;0.00;;;13.80;80.00;;;;;;5029204;28;20211;-40
2024/01/22 10:00:40;;;;;;;0.00;0.00;;;13.80;80.00;;;;;;5027411;28;20208;-41
2024/01/22 10:03:10;;;;;;;0.00;0.00;;;13.80;79.90;;;;;;5027840;28;20274;-41
2024/01/22 10:05:41;;;;;;;0.00;0.00;;;13.80;79.80;;;;;;5027915;28;20204;-41
2024/01/22 10:08:08;;;;;;;0.00;0.00;;;13.80;79.90;;;;;;5027502;28;20228;-40
2024/01/22 10:10:37;;;;;;;0.00;0.00;;;13.90;80.00;;;;;;5025846;28;20229;-40
2024/01/22 10:13:09;;;;;;;0.00;0.00;;;13.90;80.00;;;;;;5027520;28;20199;-41
2024/01/22 10:15:37;;;;;;;0.00;0.00;;;13.90;79.90;;;;;;5009753;28;20591;-41
2024/01/22 10:18:08;;;;;;;0.00;0.00;;;13.90;79.90;;;;;;5027278;28;20193;-40
2024/01/22 10:20:36;;;;;;;0.00;0.00;;;13.90;79.90;;;;;;5024595;28;20216;-40
2024/01/22 10:23:04;;;;;;;0.00;0.00;;;13.90;79.90;;;;;;5025519;28;20224;-42
2024/01/22 10:25:36;;;;;;;0.00;0.00;;;13.90;80.10;;;;;;5027167;28;20889;-40
2024/01/22 10:28:26;;;;;;;0.00;0.00;;;13.90;80.00;;;;;;5027960;28;20212;-40
2024/01/22 10:31:05;;;;;;;0.00;0.00;;;13.90;80.10;;;;;;5027984;28;20248;-41
2024/01/22 10:33:36;;;;;;;0.00;0.00;;;13.90;80.10;;;;;;5027174;28;20243;-41
2024/01/22 10:36:15;;;;;;;0.00;0.00;;;13.90;80.10;;;;;;5027129;28;20205;-41
2024/01/22 10:38:49;;;;;;;0.00;0.00;;;13.90;80.00;;;;;;5026123;28;20688;-41
2024/01/22 10:41:27;;;;;;;0.00;0.00;;;13.90;80.00;;;;;;5025539;28;20805;-41
2024/01/22 10:43:55;;;;;;;0.00;0.00;;;13.90;79.90;;;;;;5026948;28;20221;-40
2024/01/22 10:46:28;;;;;;;0.00;0.00;;;13.80;80.00;;;;;;5025550;28;20213;-40
2024/01/22 10:48:57;;;;;;;0.00;0.00;;;13.80;79.70;;;;;;5025195;28;20197;-40
2024/01/22 10:51:25;;;;;;;0.00;0.00;;;13.80;80.00;;;;;;5026267;28;20229;-42
2024/01/22 10:53:53;;;;;;;0.00;0.00;;;13.80;80.00;;;;;;5025046;28;20249;-42
2024/01/22 10:56:33;;;;;;;0.00;0.00;;;13.80;80.00;;;;;;5026803;28;20255;-42
2024/01/22 10:59:08;;;;;;;0.00;0.00;;;13.80;79.90;;;;;;5027157;28;20726;-42
2024/01/22 11:01:39;;;;;;;0.00;0.00;;;13.80;79.80;;;;;;5025306;28;20714;-41
2024/01/22 11:04:08;;;;;;;0.00;0.00;;;13.80;79.70;;;;;;5026401;28;20210;-41
2024/01/22 11:06:40;;;;;;;0.00;0.00;;;13.80;79.70;;;;;;5026598;28;20678;-41
2024/01/22 11:09:11;;;;;;;0.00;0.00;;;13.80;79.60;;;;;;5025845;28;20199;-42
2024/01/22 11:11:42;;;;;;;0.00;0.00;;;13.80;79.60;;;;;;5026434;28;20723;-41
2024/01/22 11:14:12;;;;;;;0.00;0.00;;;13.80;79.60;;;;;;5026424;28;20223;-41
2024/01/22 11:16:40;;;;;;;0.00;0.00;;;13.70;79.30;;;;;;5041139;28;20201;-40
2024/01/22 11:19:19;;;;;;;0.00;0.00;;;13.70;78.90;;;;;;5025719;28;20213;-40
2024/01/22 11:21:49;;;;;;;0.00;0.00;;;13.70;78.90;;;;;;5025722;28;20396;-40
2024/01/22 11:24:22;;;;;;;0.00;0.00;;;13.70;79.10;;;;;;5025614;28;20687;-40
2024/01/22 11:26:55;;;;;;;0.00;0.00;;;13.70;78.90;;;;;;5026538;28;20240;-39
2024/01/22 11:29:28;;;;;;;0.00;0.00;;;13.60;78.40;;;;;;5025962;28;20193;-39
2024/01/22 11:32:28;;;;;;;0.00;0.00;;;13.60;78.20;;;;;;5009155;28;20208;-40
2024/01/22 11:35:00;;;;;;;0.00;0.00;;;13.60;78.70;;;;;;5022930;28;20607;-39
2024/01/22 11:37:41;;;;;;;0.00;0.00;;;13.50;78.90;;;;;;5028439;28;20250;-39
2024/01/22 11:40:11;;;;;;;0.00;0.00;;;13.50;78.30;;;;;;5043994;28;20204;-40
2024/01/22 11:42:42;;;;;;;0.00;0.00;;;13.50;78.50;;;;;;5045222;28;20589;-39
2024/01/22 11:45:15;;;;;;;0.00;0.00;;;13.40;78.50;;;;;;5028137;28;20215;-39
2024/01/22 11:47:48;;;;;;;0.00;0.00;;;13.40;78.70;;;;;;5028916;28;20670;-39
2024/01/22 11:50:16;;;;;;;0.00;0.00;;;13.40;79.00;;;;;;5027228;28;20244;-40
2024/01/22 11:52:46;;;;;;;0.00;0.00;;;13.40;78.70;;;;;;5027160;28;20224;-39
2024/01/22 11:55:13;;;;;;;0.00;0.00;;;13.40;78.80;;;;;;5042970;28;20212;-39
2024/01/22 11:57:40;;;;;;;0.00;0.00;;;13.40;78.70;;;;;;5045670;28;20208;-41
2024/01/22 12:00:24;;;;;;;0.00;0.00;;;13.40;77.70;;;;;;5045922;28;20196;-39
2024/01/22 12:02:58;;;;;;;0.00;0.00;;;13.30;78.30;;;;;;5026884;28;20216;-41
2024/01/22 12:05:28;;;;;;;0.00;0.00;;;13.30;78.00;;;;;;5025148;28;20603;-41
2024/01/22 12:07:57;;;;;;;0.00;0.00;;;13.20;77.30;;;;;;5023644;28;20201;-41
2024/01/22 12:10:32;;;;;;;0.00;0.00;;;13.20;78.10;;;;;;5025066;28;20235;-39
2024/01/22 12:13:08;;;;;;;0.00;0.00;;;13.20;78.00;;;;;;5039127;28;20610;-38
2024/01/22 12:15:39;;;;;;;0.00;0.00;;;13.10;77.70;;;;;;5044852;28;20196;-39
2024/01/22 12:18:09;;;;;;;0.00;0.00;;;13.10;77.70;;;;;;5043387;28;20650;-41
2024/01/22 12:20:37;;;;;;;0.00;0.00;;;13.10;76.70;;;;;;5026813;28;20224;-41
2024/01/22 12:23:07;;;;;;;0.00;0.00;;;13.10;78.00;;;;;;5022992;28;20209;-39
2024/01/22 12:25:38;;;;;;;0.00;0.00;;;13.00;78.10;;;;;;5023307;28;20243;-38
2024/01/22 12:28:13;;;;;;;0.00;0.00;;;13.00;77.00;;;;;;5025713;28;20200;-38
2024/01/22 12:30:48;;;;;;;0.00;0.00;;;12.90;77.70;;;;;;5025197;28;20228;-38
2024/01/22 12:33:24;;;;;;;0.00;0.00;;;12.90;77.10;;;;;;5025275;28;20510;-38
2024/01/22 12:36:09;;;;;;;0.00;0.00;;;12.90;77.20;;;;;;5023739;28;20507;-38
2024/01/22 12:38:55;;;;;;;0.00;0.00;;;12.90;77.40;;;;;;5024649;28;20201;-38
2024/01/22 12:41:27;;;;;;;0.00;0.00;;;12.90;77.50;;;;;;5024813;28;20259;-38
2024/01/22 12:43:57;;;;;;;0.00;0.00;;;12.90;77.50;;;;;;5022521;28;20197;-41
2024/01/22 12:46:28;;;;;;;0.00;0.00;;;12.90;77.80;;;;;;5023837;28;20225;-37
2024/01/22 12:48:55;;;;;;;0.00;0.00;;;12.90;78.00;;;;;;5024714;28;20276;-38
2024/01/22 12:51:26;;;;;;;0.00;0.00;;;12.90;77.80;;;;;;5024852;28;20271;-38
2024/01/22 12:53:54;;;;;;;0.00;0.00;;;12.90;77.70;;;;;;5023301;28;20244;-40
2024/01/22 12:56:21;;;;;;;0.00;0.00;;;12.90;77.40;;;;;;5023455;28;20212;-39
2024/01/22 12:58:49;;;;;;;0.00;0.00;;;12.90;77.90;;;;;;5024766;28;21086;-39
2024/01/22 13:01:16;;;;;;;0.00;0.00;;;12.90;77.70;;;;;;5038111;28;20646;-39